Terminal Aerodrome Forecast
Issued by NWS

Home | Current Version | Previous Version | Text Only | Print | Product List | Glossary On
Versions: 1 2 3 4 5 6 7 8 9 10 11 12 13 14 15 16 17 18 19 20 21 22 23 24 25 26 27 28 29 30 31 32 33 34
000
FTUS41 KCTP 220305 AAA
TAFAOO
TAF AMD
KAOO 220305Z 2203/2224 19004KT P6SM SKC
     FM220400 00000KT 4SM BR SCT250
     FM220800 00000KT 1 1/2SM BR SCT250
     FM221000 00000KT 1/2SM FG BKN001
     FM221100 00000KT 1/4SM FG BKN001
     FM221300 00000KT 2SM BR OVC250
     FM221400 00000KT 6SM HZ BKN250
     FM221800 22004KT P6SM -SHRA VCTS OVC025CB=

USA.gov is the U.S. government's official web portal to all federal, state and local government web resources and services.